createdAt,value
2019-01-29T00:00:32.349Z,1.65
2019-01-29T00:03:01.078Z,1.51
2019-01-29T00:05:29.801Z,1.45
2019-01-29T00:07:59.020Z,1.46
2019-01-29T00:10:27.746Z,1.65
2019-01-29T00:12:56.478Z,1.59
2019-01-29T00:15:25.451Z,1.68
2019-01-29T00:17:54.174Z,1.80
2019-01-29T00:20:22.903Z,1.64
2019-01-29T00:22:51.677Z,1.74
2019-01-29T00:25:20.502Z,1.58
2019-01-29T00:27:49.268Z,1.51
2019-01-29T00:30:18.041Z,1.51
2019-01-29T00:32:46.770Z,1.93
2019-01-29T00:35:15.492Z,1.64
2019-01-29T00:37:44.259Z,1.28
2019-01-29T00:40:15.461Z,1.37
2019-01-29T00:42:44.183Z,1.16
2019-01-29T00:45:15.745Z,0.97
2019-01-29T00:47:44.568Z,0.90
2019-01-29T00:50:15.389Z,0.90
2019-01-29T00:52:44.255Z,0.95
2019-01-29T00:55:15.287Z,0.82
2019-01-29T00:57:43.974Z,0.83
2019-01-29T01:00:21.413Z,0.93
2019-01-29T01:02:50.218Z,1.01
2019-01-29T01:05:20.511Z,1.15
2019-01-29T01:07:49.513Z,0.81
2019-01-29T01:10:20.348Z,0.66
2019-01-29T01:12:49.068Z,1.00
2019-01-29T01:15:18.224Z,0.91
2019-01-29T01:17:46.951Z,0.83
2019-01-29T01:20:17.580Z,0.66
2019-01-29T01:22:51.090Z,0.62
2019-01-29T01:25:17.126Z,0.57
2019-01-29T01:27:45.855Z,0.74
2019-01-29T01:30:17.151Z,0.80
2019-01-29T01:32:45.878Z,0.77
2019-01-29T01:35:14.594Z,0.94
2019-01-29T01:37:44.056Z,0.85
2019-01-29T01:40:18.680Z,1.04
2019-01-29T01:42:47.407Z,1.07
2019-01-29T01:45:16.307Z,1.30
2019-01-29T01:47:45.037Z,1.15
2019-01-29T01:50:14.860Z,1.11
2019-01-29T01:52:43.700Z,1.38
2019-01-29T01:55:14.921Z,1.18
2019-01-29T01:57:43.654Z,1.11
2019-01-29T02:00:17.552Z,1.23
2019-01-29T02:02:46.376Z,1.32
2019-01-29T02:05:15.193Z,1.19
2019-01-29T02:07:44.355Z,1.21
2019-01-29T02:10:22.433Z,1.04
2019-01-29T02:12:51.711Z,1.06
2019-01-29T02:15:20.544Z,1.14
2019-01-29T02:17:49.275Z,1.16
2019-01-29T02:20:18.571Z,1.00
2019-01-29T02:22:47.296Z,1.14
2019-01-29T02:25:16.020Z,1.02
2019-01-29T02:27:45.168Z,0.94
2019-01-29T02:30:24.666Z,0.89
2019-01-29T02:32:53.644Z,0.54
2019-01-29T02:35:22.461Z,0.52
2019-01-29T02:37:51.201Z,0.43
2019-01-29T02:40:22.607Z,0.23
2019-01-29T02:42:51.333Z,0.18
2019-01-29T02:45:20.370Z,0.11
2019-01-29T02:47:49.245Z,0.37
2019-01-29T02:50:18.778Z,0.15
2019-01-29T02:52:47.615Z,0.05
2019-01-29T02:55:18.122Z,-0.04
2019-01-29T02:57:46.855Z,0.09
2019-01-29T03:00:21.200Z,0.16
2019-01-29T03:02:50.029Z,0.12
2019-01-29T03:05:19.501Z,0.17
2019-01-29T03:07:48.666Z,0.05
2019-01-29T03:10:22.907Z,0.11
2019-01-29T03:12:51.639Z,-0.02
2019-01-29T03:15:23.715Z,-0.27
2019-01-29T03:17:52.530Z,-0.40
2019-01-29T03:20:21.456Z,-0.30
2019-01-29T03:22:50.228Z,0.09
2019-01-29T03:25:18.963Z,-0.13
2019-01-29T03:27:47.696Z,-0.08
2019-01-29T03:30:18.796Z,-0.09
2019-01-29T03:32:47.635Z,-0.10
2019-01-29T03:35:16.800Z,0.04
2019-01-29T03:37:45.699Z,-0.08
2019-01-29T03:40:17.236Z,-0.09
2019-01-29T03:42:45.958Z,0.15
2019-01-29T03:45:16.588Z,0.20
2019-01-29T03:47:45.371Z,-0.27
2019-01-29T03:50:19.122Z,-0.37
2019-01-29T03:52:48.122Z,-0.45
2019-01-29T03:55:16.847Z,-0.49
2019-01-29T03:57:45.574Z,-0.52
2019-01-29T04:00:19.846Z,-0.35
2019-01-29T04:02:48.583Z,-0.04
2019-01-29T04:05:17.315Z,-0.05
2019-01-29T04:07:46.228Z,-0.08
2019-01-29T04:10:16.560Z,-0.16
2019-01-29T04:12:46.071Z,-0.24
2019-01-29T04:15:20.051Z,-0.24
2019-01-29T04:17:51.678Z,-0.34
2019-01-29T04:20:21.512Z,-0.20
2019-01-29T04:22:50.347Z,0.08
2019-01-29T04:25:19.173Z,0.23
2019-01-29T04:27:47.893Z,0.10
2019-01-29T04:30:19.006Z,-0.11
2019-01-29T04:32:47.750Z,-0.12
2019-01-29T04:35:16.866Z,-0.03
2019-01-29T04:37:45.752Z,0.10
2019-01-29T04:40:16.487Z,0.06
2019-01-29T04:42:45.311Z,0.13
2019-01-29T04:45:15.869Z,0.16
2019-01-29T04:47:44.698Z,0.16
2019-01-29T04:50:20.778Z,0.36
2019-01-29T04:52:49.617Z,0.36
2019-01-29T04:55:19.054Z,0.23
2019-01-29T04:57:47.782Z,0.26
2019-01-29T05:00:22.716Z,0.46
2019-01-29T05:02:51.440Z,0.39
2019-01-29T05:05:20.769Z,0.32
2019-01-29T05:07:49.831Z,0.49
2019-01-29T05:10:20.358Z,0.47
2019-01-29T05:12:49.085Z,0.54
2019-01-29T05:15:19.789Z,0.66
2019-01-29T05:17:48.807Z,0.48
2019-01-29T05:20:19.632Z,0.49
2019-01-29T05:22:48.454Z,0.32
2019-01-29T05:25:17.380Z,0.24
2019-01-29T05:27:46.100Z,0.25
2019-01-29T05:30:23.678Z,0.26
2019-01-29T05:32:52.494Z,0.19
2019-01-29T05:35:21.218Z,0.11
2019-01-29T05:37:50.084Z,0.18
2019-01-29T05:40:20.921Z,0.13
2019-01-29T05:42:49.963Z,-0.02
2019-01-29T05:45:20.645Z,0.02
2019-01-29T05:47:49.410Z,0.21
2019-01-29T05:50:18.983Z,0.17
2019-01-29T05:52:47.887Z,0.02
2019-01-29T05:55:17.330Z,0.02
2019-01-29T05:57:46.066Z,-0.07
2019-01-29T06:00:18.700Z,0.00
2019-01-29T06:02:48.615Z,0.14
2019-01-29T06:05:17.951Z,0.16
2019-01-29T06:07:46.858Z,0.23
2019-01-29T06:10:19.002Z,0.22
2019-01-29T06:12:47.731Z,0.38
2019-01-29T06:15:19.165Z,0.67
2019-01-29T06:17:47.887Z,0.72
2019-01-29T06:20:22.210Z,0.82
2019-01-29T06:22:51.004Z,0.96
2019-01-29T06:25:19.736Z,1.01
2019-01-29T06:27:55.083Z,0.79
2019-01-29T06:30:25.920Z,0.62
2019-01-29T06:32:54.862Z,0.84
2019-01-29T06:35:24.156Z,0.79
2019-01-29T06:37:52.886Z,0.66
2019-01-29T06:40:26.487Z,0.65
2019-01-29T06:42:55.381Z,0.89
2019-01-29T06:45:25.520Z,0.98
2019-01-29T06:47:54.742Z,0.91
2019-01-29T06:50:25.909Z,0.81
2019-01-29T06:52:55.041Z,1.10
2019-01-29T06:55:25.176Z,1.22
2019-01-29T06:57:55.925Z,1.43
2019-01-29T07:00:27.454Z,1.75
2019-01-29T07:02:56.388Z,1.87
2019-01-29T07:05:25.361Z,1.77
2019-01-29T07:07:54.082Z,1.87
2019-01-29T07:10:24.418Z,1.78
2019-01-29T07:12:53.203Z,1.80
2019-01-29T07:15:42.644Z,1.67
2019-01-29T07:18:25.235Z,1.84
2019-01-29T07:20:53.966Z,1.93
2019-01-29T07:23:22.697Z,2.01
2019-01-29T07:25:51.553Z,1.98
2019-01-29T07:28:20.294Z,2.21
2019-01-29T07:30:49.038Z,2.01
2019-01-29T07:33:18.019Z,1.87
2019-01-29T07:35:46.744Z,2.11
2019-01-29T07:38:15.468Z,1.92
2019-01-29T07:40:44.369Z,2.03
2019-01-29T07:43:13.092Z,2.12
2019-01-29T07:45:41.812Z,2.20
2019-01-29T07:48:11.122Z,2.32
2019-01-29T07:50:39.851Z,2.69
2019-01-29T07:53:08.734Z,2.70
2019-01-29T07:55:37.501Z,2.96
2019-01-29T07:58:06.226Z,2.98
2019-01-29T08:00:34.947Z,2.96
2019-01-29T08:03:06.377Z,2.89
2019-01-29T08:05:38.159Z,2.97
2019-01-29T08:08:06.979Z,3.22
2019-01-29T08:10:35.866Z,3.12
2019-01-29T08:13:04.987Z,3.17
2019-01-29T08:15:33.725Z,3.07
2019-01-29T08:18:21.053Z,3.32
2019-01-29T08:20:49.773Z,3.54
2019-01-29T08:23:18.504Z,3.43
2019-01-29T08:25:48.153Z,3.09
2019-01-29T08:28:17.092Z,2.78
2019-01-29T08:30:45.825Z,2.87
2019-01-29T08:33:14.800Z,3.06
2019-01-29T08:35:43.523Z,3.03
2019-01-29T08:38:12.253Z,3.33
2019-01-29T08:40:41.096Z,3.19
2019-01-29T08:43:09.813Z,3.43
2019-01-29T08:45:38.533Z,3.71
2019-01-29T08:48:07.294Z,3.63
2019-01-29T08:50:36.017Z,3.66
2019-01-29T08:53:04.837Z,3.87
2019-01-29T08:55:33.608Z,4.10
2019-01-29T08:58:02.324Z,4.27
2019-01-29T09:00:31.049Z,4.31
2019-01-29T09:02:59.817Z,4.46
2019-01-29T09:05:28.536Z,4.48
2019-01-29T09:07:57.255Z,4.75
2019-01-29T09:10:26.120Z,4.83
2019-01-29T09:12:54.842Z,4.73
2019-01-29T09:15:23.663Z,4.71
2019-01-29T09:17:52.536Z,4.66
2019-01-29T09:20:22.459Z,4.75
2019-01-29T09:22:51.196Z,4.74
2019-01-29T09:25:22.713Z,4.66
2019-01-29T09:27:50.522Z,4.92
2019-01-29T09:30:20.542Z,5.25
2019-01-29T09:32:49.445Z,5.46
2019-01-29T09:35:18.151Z,5.27
2019-01-29T09:37:46.873Z,5.18
2019-01-29T09:40:25.303Z,5.41
2019-01-29T09:42:54.027Z,5.51
2019-01-29T09:45:23.150Z,5.67
2019-01-29T09:47:52.048Z,5.60
2019-01-29T09:50:22.691Z,5.74
2019-01-29T09:52:52.415Z,5.73
2019-01-29T09:55:28.929Z,5.98
2019-01-29T09:57:53.954Z,6.03
2019-01-29T10:00:30.837Z,6.07
2019-01-29T10:02:59.665Z,6.30
2019-01-29T10:05:28.606Z,6.18
2019-01-29T10:07:57.362Z,6.08
2019-01-29T10:10:26.082Z,6.03
2019-01-29T10:12:54.795Z,6.11
2019-01-29T10:15:26.402Z,6.26
2019-01-29T10:17:55.438Z,6.43
2019-01-29T10:20:24.285Z,6.13
2019-01-29T10:22:53.149Z,6.16
2019-01-29T10:25:21.961Z,6.12
2019-01-29T10:27:50.679Z,6.11
2019-01-29T10:30:21.864Z,6.27
2019-01-29T10:32:50.586Z,6.24
2019-01-29T10:35:21.511Z,6.26
2019-01-29T10:37:50.367Z,6.73
2019-01-29T10:40:21.794Z,6.43
2019-01-29T10:42:52.180Z,7.11
2019-01-29T10:45:22.678Z,7.27
2019-01-29T10:47:51.414Z,7.56
2019-01-29T10:50:28.595Z,7.49
2019-01-29T10:52:57.518Z,7.46
2019-01-29T10:55:26.338Z,7.64
2019-01-29T10:57:55.381Z,7.63
2019-01-29T11:00:29.992Z,7.65
2019-01-29T11:02:59.319Z,7.55
2019-01-29T11:05:28.125Z,7.59
2019-01-29T11:07:56.849Z,7.52
2019-01-29T11:10:25.722Z,7.81
2019-01-29T11:12:54.547Z,8.22
2019-01-29T11:15:26.417Z,8.02
2019-01-29T11:17:55.302Z,8.24
2019-01-29T11:20:24.122Z,8.22
2019-01-29T11:22:52.849Z,7.90
2019-01-29T11:25:24.482Z,7.97
2019-01-29T11:27:53.203Z,7.94
2019-01-29T11:30:27.456Z,7.75
2019-01-29T11:32:56.429Z,7.91
2019-01-29T11:35:25.246Z,8.05
2019-01-29T11:37:54.063Z,8.18
2019-01-29T11:40:25.849Z,8.05
2019-01-29T11:42:56.789Z,8.11
2019-01-29T11:45:33.383Z,7.40
2019-01-29T11:48:02.097Z,7.53
2019-01-29T11:50:30.934Z,7.86
2019-01-29T11:52:59.738Z,7.35
2019-01-29T11:55:28.470Z,7.50
2019-01-29T11:57:57.192Z,7.39
2019-01-29T12:00:36.428Z,7.21
2019-01-29T12:03:05.708Z,7.52
2019-01-29T12:05:34.726Z,7.36
2019-01-29T12:08:03.599Z,7.44
2019-01-29T12:10:32.330Z,7.28
2019-01-29T12:13:02.532Z,7.09
2019-01-29T12:15:31.438Z,7.20
2019-01-29T12:18:00.171Z,7.09
2019-01-29T12:20:28.995Z,6.89
2019-01-29T12:22:57.824Z,6.87
2019-01-29T12:25:26.552Z,7.08
2019-01-29T12:27:55.273Z,7.25
2019-01-29T12:30:26.881Z,7.24
2019-01-29T12:32:55.915Z,7.15
2019-01-29T12:35:24.644Z,7.18
2019-01-29T12:37:53.448Z,7.18
2019-01-29T12:40:22.174Z,7.30
2019-01-29T12:42:50.901Z,7.30
2019-01-29T12:45:20.068Z,7.42
2019-01-29T12:47:48.792Z,7.53
2019-01-29T12:50:23.504Z,7.92
2019-01-29T12:52:53.985Z,7.74
2019-01-29T12:55:22.809Z,7.89
2019-01-29T12:57:51.541Z,8.05
2019-01-29T13:00:21.892Z,8.05
2019-01-29T13:02:50.622Z,7.98
2019-01-29T13:05:19.329Z,7.52
2019-01-29T13:07:48.558Z,7.53
2019-01-29T13:10:20.324Z,7.69
2019-01-29T13:12:49.043Z,7.77
2019-01-29T13:15:20.971Z,8.11
2019-01-29T13:17:49.895Z,8.23
2019-01-29T13:20:18.620Z,8.29
2019-01-29T13:22:47.383Z,8.27
2019-01-29T13:25:16.206Z,8.33
2019-01-29T13:27:44.924Z,8.37
2019-01-29T13:30:16.620Z,8.29
2019-01-29T13:32:45.343Z,8.23
2019-01-29T13:35:14.458Z,8.42
2019-01-29T13:37:43.245Z,8.54
2019-01-29T13:40:13.939Z,8.59
2019-01-29T13:42:42.679Z,8.52
2019-01-29T13:45:14.110Z,8.66
2019-01-29T13:47:42.828Z,8.74
2019-01-29T13:50:23.331Z,8.84
2019-01-29T13:52:52.065Z,8.72
2019-01-29T13:55:20.791Z,8.68
2019-01-29T13:57:49.567Z,8.62
2019-01-29T14:00:21.305Z,8.59
2019-01-29T14:02:50.032Z,8.59
2019-01-29T14:05:18.904Z,8.80
2019-01-29T14:07:47.624Z,8.85
2019-01-29T14:10:17.056Z,8.64
2019-01-29T14:12:45.946Z,8.62
2019-01-29T14:15:19.044Z,8.70
2019-01-29T14:17:47.865Z,8.82
2019-01-29T14:20:20.376Z,8.73
2019-01-29T14:22:49.537Z,8.66
2019-01-29T14:25:18.301Z,8.40
2019-01-29T14:27:47.197Z,8.26
2019-01-29T14:30:19.148Z,8.15
2019-01-29T14:32:47.944Z,7.97
2019-01-29T14:35:16.911Z,8.02
2019-01-29T14:38:12.561Z,7.74
2019-01-29T14:40:41.675Z,7.51
2019-01-29T14:43:13.312Z,7.32
2019-01-29T14:45:42.039Z,7.28
2019-01-29T14:48:10.852Z,7.44
2019-01-29T14:50:39.579Z,7.36
2019-01-29T14:53:08.367Z,7.56
2019-01-29T14:55:37.422Z,7.46
2019-01-29T14:58:06.149Z,7.44
2019-01-29T15:00:37.646Z,7.27
2019-01-29T15:03:06.532Z,7.28
2019-01-29T15:05:35.255Z,7.36
2019-01-29T15:08:04.563Z,7.36
2019-01-29T15:10:33.744Z,7.31
2019-01-29T15:13:02.568Z,7.30
2019-01-29T15:15:37.984Z,7.17
2019-01-29T15:18:08.644Z,7.18
2019-01-29T15:20:37.366Z,7.17
2019-01-29T15:23:06.096Z,7.15
2019-01-29T15:25:34.979Z,6.97
2019-01-29T15:28:03.701Z,6.82
2019-01-29T15:30:32.931Z,6.84
2019-01-29T15:33:01.803Z,6.84
2019-01-29T15:35:30.530Z,6.82
2019-01-29T15:37:59.256Z,6.94
2019-01-29T15:40:28.083Z,7.02
2019-01-29T15:42:56.808Z,7.05
2019-01-29T15:45:27.335Z,6.93
2019-01-29T15:47:56.471Z,6.87
2019-01-29T15:50:26.901Z,6.80
2019-01-29T15:52:55.644Z,6.67
2019-01-29T15:55:24.501Z,6.62
2019-01-29T15:57:53.436Z,6.60
2019-01-29T16:00:27.816Z,6.67
2019-01-29T16:02:56.618Z,6.71
2019-01-29T16:05:30.417Z,6.54
2019-01-29T16:07:59.153Z,6.60
2019-01-29T16:10:39.491Z,6.60
2019-01-29T16:13:04.024Z,6.55
2019-01-29T16:15:32.856Z,6.40
2019-01-29T16:18:01.631Z,6.27
2019-01-29T16:20:30.364Z,6.07
2019-01-29T16:22:59.090Z,5.96
2019-01-29T16:25:29.995Z,6.06
2019-01-29T16:27:58.828Z,5.96
2019-01-29T16:30:32.558Z,5.78
2019-01-29T16:33:01.864Z,5.73
2019-01-29T16:35:35.536Z,5.61
2019-01-29T16:38:05.401Z,5.44
2019-01-29T16:40:37.233Z,5.32
2019-01-29T16:43:06.371Z,5.29
2019-01-29T16:45:36.729Z,5.30
2019-01-29T16:48:07.786Z,5.29
2019-01-29T16:50:36.497Z,5.24
2019-01-29T16:53:10.051Z,5.25
2019-01-29T16:55:38.881Z,5.22
2019-01-29T16:58:08.410Z,5.08
2019-01-29T17:00:39.713Z,5.09
2019-01-29T17:03:08.544Z,5.06
2019-01-29T17:05:37.273Z,5.10
2019-01-29T17:08:06.387Z,5.41
2019-01-29T17:10:36.548Z,5.68
2019-01-29T17:13:05.988Z,5.59
2019-01-29T17:15:36.391Z,5.54
2019-01-29T17:18:07.024Z,5.52
2019-01-29T17:20:44.297Z,5.49
2019-01-29T17:23:13.027Z,5.64
2019-01-29T17:25:41.866Z,6.13
2019-01-29T17:28:10.646Z,6.00
2019-01-29T17:30:42.132Z,5.80
2019-01-29T17:33:11.482Z,5.82
2019-01-29T17:35:41.061Z,6.02
2019-01-29T17:38:09.816Z,5.87
2019-01-29T17:40:38.810Z,5.75
2019-01-29T17:43:08.296Z,5.77
2019-01-29T17:45:45.534Z,5.46
2019-01-29T17:48:14.729Z,5.29
2019-01-29T17:50:45.361Z,5.42
2019-01-29T17:53:14.104Z,5.71
2019-01-29T17:55:44.489Z,5.73
2019-01-29T17:58:13.930Z,5.69
2019-01-29T18:00:44.742Z,5.70
2019-01-29T18:03:13.471Z,5.59
2019-01-29T18:05:42.213Z,5.19
2019-01-29T18:08:10.942Z,5.14
2019-01-29T18:10:39.833Z,5.04
2019-01-29T18:13:08.566Z,5.07
2019-01-29T18:15:37.296Z,5.14
2019-01-29T18:18:07.042Z,5.03
2019-01-29T18:20:35.767Z,4.88
2019-01-29T18:23:05.929Z,4.79
2019-01-29T18:25:34.898Z,4.79
2019-01-29T18:28:03.728Z,4.88
2019-01-29T18:30:36.389Z,4.96
2019-01-29T18:33:05.729Z,5.10
2019-01-29T18:35:34.497Z,5.25
2019-01-29T18:38:03.254Z,5.52
2019-01-29T18:40:38.439Z,5.61
2019-01-29T18:43:07.172Z,5.56
2019-01-29T18:45:36.109Z,5.64
2019-01-29T18:48:04.971Z,5.63
2019-01-29T18:50:33.807Z,5.56
2019-01-29T18:53:02.549Z,5.51
2019-01-29T18:55:31.510Z,5.41
2019-01-29T18:58:00.260Z,5.44
2019-01-29T19:00:28.988Z,5.55
2019-01-29T19:02:57.865Z,5.53
2019-01-29T19:05:27.394Z,5.37
2019-01-29T19:07:56.124Z,5.07
2019-01-29T19:10:25.188Z,4.85
2019-01-29T19:12:53.923Z,4.91
2019-01-29T19:15:24.671Z,4.92
2019-01-29T19:17:53.649Z,4.84
2019-01-29T19:20:24.827Z,4.77
2019-01-29T19:22:53.563Z,4.64
2019-01-29T19:25:22.476Z,4.82
2019-01-29T19:27:51.210Z,5.08
2019-01-29T19:30:22.148Z,5.18
2019-01-29T19:32:50.957Z,5.02
2019-01-29T19:35:19.706Z,4.84
2019-01-29T19:37:48.655Z,4.92
2019-01-29T19:40:19.167Z,5.01
2019-01-29T19:42:47.909Z,4.96
2019-01-29T19:45:19.552Z,4.89
2019-01-29T19:47:48.571Z,4.87
2019-01-29T19:50:19.925Z,5.05
2019-01-29T19:52:49.043Z,5.02
2019-01-29T19:55:17.847Z,4.80
2019-01-29T19:57:46.695Z,4.67
2019-01-29T20:00:21.024Z,4.59
2019-01-29T20:02:50.027Z,4.69
2019-01-29T20:05:18.964Z,4.69
2019-01-29T20:07:47.707Z,4.73
2019-01-29T20:10:18.403Z,4.67
2019-01-29T20:12:48.234Z,4.55
2019-01-29T20:15:22.333Z,4.44
2019-01-29T20:17:52.410Z,4.23
2019-01-29T20:20:29.880Z,4.27
2019-01-29T20:23:07.573Z,4.15
2019-01-29T20:25:29.116Z,4.03
2019-01-29T20:27:57.864Z,4.07
2019-01-29T20:30:32.442Z,3.99
2019-01-29T20:33:01.176Z,3.75
2019-01-29T20:35:29.906Z,3.83
2019-01-29T20:37:58.791Z,3.89
2019-01-29T20:40:27.621Z,3.82
2019-01-29T20:42:56.361Z,3.70
2019-01-29T20:45:25.639Z,3.79
2019-01-29T20:47:54.373Z,3.73
2019-01-29T20:50:31.895Z,3.94
2019-01-29T20:53:00.631Z,3.85
2019-01-29T20:55:29.376Z,3.89
2019-01-29T20:57:58.564Z,3.90
2019-01-29T21:00:35.258Z,3.88
2019-01-29T21:03:04.462Z,3.83
2019-01-29T21:05:34.762Z,3.96
2019-01-29T21:08:03.497Z,3.92
2019-01-29T21:10:32.390Z,4.04
2019-01-29T21:13:01.175Z,4.19
2019-01-29T21:15:38.098Z,4.20
2019-01-29T21:18:00.819Z,4.49
2019-01-29T21:20:31.544Z,4.39
2019-01-29T21:23:00.276Z,4.35
2019-01-29T21:25:29.477Z,4.19
2019-01-29T21:27:58.214Z,4.12
2019-01-29T21:30:32.652Z,4.10
2019-01-29T21:33:01.647Z,4.15
2019-01-29T21:35:30.787Z,4.23
2019-01-29T21:38:05.729Z,4.20
2019-01-29T21:40:34.619Z,4.29
2019-01-29T21:43:03.356Z,4.46
2019-01-29T21:45:32.091Z,4.56
2019-01-29T21:48:01.842Z,4.52
2019-01-29T21:50:32.913Z,4.65
2019-01-29T21:53:01.736Z,4.84
2019-01-29T21:55:30.946Z,4.95
2019-01-29T21:57:59.888Z,4.98
2019-01-29T22:00:41.076Z,5.01
2019-01-29T22:03:09.801Z,4.96
2019-01-29T22:05:38.684Z,4.83
2019-01-29T22:08:08.312Z,4.80
2019-01-29T22:10:37.017Z,4.92
2019-01-29T22:13:06.946Z,4.97
2019-01-29T22:15:35.804Z,4.92
2019-01-29T22:18:06.513Z,4.91
2019-01-29T22:20:35.235Z,5.02
2019-01-29T22:23:04.102Z,5.05
2019-01-29T22:25:35.761Z,5.35
2019-01-29T22:28:04.831Z,5.35
2019-01-29T22:30:41.434Z,5.28
2019-01-29T22:33:10.159Z,5.33
2019-01-29T22:35:38.886Z,5.86
2019-01-29T22:38:08.117Z,5.98
2019-01-29T22:40:36.822Z,6.28
2019-01-29T22:43:06.106Z,6.28
2019-01-29T22:45:34.992Z,6.86
2019-01-29T22:48:04.643Z,7.69
2019-01-29T22:50:41.128Z,8.11
2019-01-29T22:53:09.845Z,8.30
2019-01-29T22:55:38.563Z,8.52
2019-01-29T22:58:07.806Z,8.63
2019-01-29T23:00:43.897Z,8.71
2019-01-29T23:03:12.658Z,8.69
2019-01-29T23:05:41.385Z,8.71
2019-01-29T23:08:10.191Z,8.69
2019-01-29T23:10:39.041Z,8.67
2019-01-29T23:13:07.863Z,8.54
2019-01-29T23:15:36.577Z,8.59
2019-01-29T23:18:05.847Z,8.52
2019-01-29T23:20:34.573Z,8.55
2019-01-29T23:23:03.296Z,8.65
2019-01-29T23:25:32.113Z,8.55
2019-01-29T23:28:00.854Z,8.49
2019-01-29T23:30:29.564Z,8.53
2019-01-29T23:32:58.884Z,8.49
2019-01-29T23:35:27.608Z,8.50
2019-01-29T23:37:56.326Z,8.48
2019-01-29T23:40:25.199Z,8.64
2019-01-29T23:42:53.919Z,8.74
2019-01-29T23:45:22.639Z,8.82
2019-01-29T23:47:53.055Z,8.72
2019-01-29T23:50:21.774Z,8.62
2019-01-29T23:52:50.498Z,8.51
2019-01-29T23:55:19.258Z,8.57
2019-01-29T23:57:47.973Z,8.65
